sensor_id;sensor_type;location;lat;lon;timestamp;temperature;humidity
18823;DHT22;9540;51.550;7.980;2023-06-22T00:01:20;17.80;99.90
18823;DHT22;9540;51.550;7.980;2023-06-22T00:03:48;17.90;99.90
18823;DHT22;9540;51.550;7.980;2023-06-22T00:06:15;17.90;99.90
18823;DHT22;9540;51.550;7.980;2023-06-22T00:08:42;17.80;99.90
18823;DHT22;9540;51.550;7.980;2023-06-22T00:11:11;17.80;99.90
18823;DHT22;9540;51.550;7.980;2023-06-22T00:13:39;17.70;99.90
18823;DHT22;9540;51.550;7.980;2023-06-22T00:16:06;17.60;99.90
18823;DHT22;9540;51.550;7.980;2023-06-22T00:18:33;17.60;99.90
18823;DHT22;9540;51.550;7.980;2023-06-22T00:21:00;17.50;99.90
18823;DHT22;9540;51.550;7.980;2023-06-22T00:23:27;17.50;99.90
18823;DHT22;9540;51.550;7.980;2023-06-22T00:25:59;17.60;99.90
18823;DHT22;9540;51.550;7.980;2023-06-22T00:28:28;17.60;99.90
18823;DHT22;9540;51.550;7.980;2023-06-22T00:30:56;17.60;99.90
18823;DHT22;9540;51.550;7.980;2023-06-22T00:33:23;17.70;99.90
18823;DHT22;9540;51.550;7.980;2023-06-22T00:35:50;17.60;99.90
18823;DHT22;9540;51.550;7.980;2023-06-22T00:38:18;17.70;99.90
18823;DHT22;9540;51.550;7.980;2023-06-22T00:40:45;17.70;99.90
18823;DHT22;9540;51.550;7.980;2023-06-22T00:43:13;17.70;99.90
18823;DHT22;9540;51.550;7.980;2023-06-22T00:45:42;17.70;99.90
18823;DHT22;9540;51.550;7.980;2023-06-22T00:48:09;17.70;99.90
18823;DHT22;9540;51.550;7.980;2023-06-22T00:50:37;17.80;99.90
18823;DHT22;9540;51.550;7.980;2023-06-22T00:53:06;17.80;99.90
18823;DHT22;9540;51.550;7.980;2023-06-22T00:55:35;17.80;99.90
18823;DHT22;9540;51.550;7.980;2023-06-22T00:58:04;17.90;99.90
18823;DHT22;9540;51.550;7.980;2023-06-22T01:00:33;17.80;99.90
18823;DHT22;9540;51.550;7.980;2023-06-22T01:03:02;17.90;99.90
18823;DHT22;9540;51.550;7.980;2023-06-22T01:05:31;17.90;99.90
18823;DHT22;9540;51.550;7.980;2023-06-22T01:08:23;17.90;99.90
18823;DHT22;9540;51.550;7.980;2023-06-22T01:10:55;17.90;99.90
18823;DHT22;9540;51.550;7.980;2023-06-22T01:13:29;17.90;99.90
18823;DHT22;9540;51.550;7.980;2023-06-22T01:16:03;17.80;99.90
18823;DHT22;9540;51.550;7.980;2023-06-22T01:18:33;17.80;99.90
18823;DHT22;9540;51.550;7.980;2023-06-22T01:21:04;17.80;99.90
18823;DHT22;9540;51.550;7.980;2023-06-22T01:23:44;17.80;99.90
18823;DHT22;9540;51.550;7.980;2023-06-22T01:26:18;17.80;99.90
18823;DHT22;9540;51.550;7.980;2023-06-22T01:28:50;17.70;99.90
18823;DHT22;9540;51.550;7.980;2023-06-22T01:31:22;17.80;99.90
18823;DHT22;9540;51.550;7.980;2023-06-22T01:33:53;17.80;99.90
18823;DHT22;9540;51.550;7.980;2023-06-22T01:36:21;17.80;99.90
18823;DHT22;9540;51.550;7.980;2023-06-22T01:38:49;17.80;99.90
18823;DHT22;9540;51.550;7.980;2023-06-22T01:41:18;17.70;99.90
18823;DHT22;9540;51.550;7.980;2023-06-22T01:43:47;17.70;99.90
18823;DHT22;9540;51.550;7.980;2023-06-22T01:46:18;17.70;99.90
18823;DHT22;9540;51.550;7.980;2023-06-22T01:48:46;17.70;99.90
18823;DHT22;9540;51.550;7.980;2023-06-22T01:51:14;17.70;99.90
18823;DHT22;9540;51.550;7.980;2023-06-22T01:53:41;17.70;99.90
18823;DHT22;9540;51.550;7.980;2023-06-22T01:56:08;17.70;99.90
18823;DHT22;9540;51.550;7.980;2023-06-22T01:58:42;17.70;99.90
18823;DHT22;9540;51.550;7.980;2023-06-22T02:01:19;17.70;99.90
18823;DHT22;9540;51.550;7.980;2023-06-22T02:03:50;17.70;99.90
18823;DHT22;9540;51.550;7.980;2023-06-22T02:06:23;17.60;99.90
18823;DHT22;9540;51.550;7.980;2023-06-22T02:08:55;17.60;99.90
18823;DHT22;9540;51.550;7.980;2023-06-22T02:11:26;17.60;99.90
18823;DHT22;9540;51.550;7.980;2023-06-22T02:13:56;17.60;99.90
18823;DHT22;9540;51.550;7.980;2023-06-22T02:16:26;17.60;99.90
18823;DHT22;9540;51.550;7.980;2023-06-22T02:18:55;17.60;99.90
18823;DHT22;9540;51.550;7.980;2023-06-22T02:21:23;17.60;99.90
18823;DHT22;9540;51.550;7.980;2023-06-22T02:23:51;17.60;99.90
18823;DHT22;9540;51.550;7.980;2023-06-22T02:26:18;17.60;99.90
18823;DHT22;9540;51.550;7.980;2023-06-22T02:28:45;17.60;99.90
18823;DHT22;9540;51.550;7.980;2023-06-22T02:31:12;17.50;99.90
18823;DHT22;9540;51.550;7.980;2023-06-22T02:33:41;17.50;99.90
18823;DHT22;9540;51.550;7.980;2023-06-22T02:36:09;17.50;99.90
18823;DHT22;9540;51.550;7.980;2023-06-22T02:38:38;17.50;99.90
18823;DHT22;9540;51.550;7.980;2023-06-22T02:41:14;17.60;99.90
18823;DHT22;9540;51.550;7.980;2023-06-22T02:43:46;17.60;99.90
18823;DHT22;9540;51.550;7.980;2023-06-22T02:46:14;17.60;99.90
18823;DHT22;9540;51.550;7.980;2023-06-22T02:48:42;17.60;99.90
18823;DHT22;9540;51.550;7.980;2023-06-22T02:51:10;17.60;99.90
18823;DHT22;9540;51.550;7.980;2023-06-22T02:53:37;17.60;99.90
18823;DHT22;9540;51.550;7.980;2023-06-22T02:56:04;17.60;99.90
18823;DHT22;9540;51.550;7.980;2023-06-22T02:58:32;17.60;99.90
18823;DHT22;9540;51.550;7.980;2023-06-22T03:01:04;17.60;99.90
18823;DHT22;9540;51.550;7.980;2023-06-22T03:03:31;17.60;99.90
18823;DHT22;9540;51.550;7.980;2023-06-22T03:06:00;17.60;99.90
18823;DHT22;9540;51.550;7.980;2023-06-22T03:08:28;17.60;99.90
18823;DHT22;9540;51.550;7.980;2023-06-22T03:10:55;17.60;99.90
18823;DHT22;9540;51.550;7.980;2023-06-22T03:13:22;17.60;99.90
18823;DHT22;9540;51.550;7.980;2023-06-22T03:15:49;17.60;99.90
18823;DHT22;9540;51.550;7.980;2023-06-22T03:18:16;17.60;99.90
18823;DHT22;9540;51.550;7.980;2023-06-22T03:20:43;17.60;99.90
18823;DHT22;9540;51.550;7.980;2023-06-22T03:23:12;17.60;99.90
18823;DHT22;9540;51.550;7.980;2023-06-22T03:26:04;17.50;99.90
18823;DHT22;9540;51.550;7.980;2023-06-22T03:28:31;17.50;99.90
18823;DHT22;9540;51.550;7.980;2023-06-22T03:30:58;17.50;99.90
18823;DHT22;9540;51.550;7.980;2023-06-22T03:33:25;17.50;99.90
18823;DHT22;9540;51.550;7.980;2023-06-22T03:35:53;17.50;99.90
18823;DHT22;9540;51.550;7.980;2023-06-22T03:38:21;17.50;99.90
18823;DHT22;9540;51.550;7.980;2023-06-22T03:40:48;17.50;99.90
18823;DHT22;9540;51.550;7.980;2023-06-22T03:43:16;17.60;99.90
18823;DHT22;9540;51.550;7.980;2023-06-22T03:45:43;17.60;99.90
18823;DHT22;9540;51.550;7.980;2023-06-22T03:48:11;17.50;99.90
18823;DHT22;9540;51.550;7.980;2023-06-22T03:50:38;17.50;99.90
18823;DHT22;9540;51.550;7.980;2023-06-22T03:53:05;17.50;99.90
18823;DHT22;9540;51.550;7.980;2023-06-22T03:55:34;17.50;99.90
18823;DHT22;9540;51.550;7.980;2023-06-22T03:58:01;17.50;99.90
18823;DHT22;9540;51.550;7.980;2023-06-22T04:00:31;17.50;99.90
18823;DHT22;9540;51.550;7.980;2023-06-22T04:03:01;17.50;99.90
18823;DHT22;9540;51.550;7.980;2023-06-22T04:05:28;17.60;99.90
18823;DHT22;9540;51.550;7.980;2023-06-22T04:07:55;17.60;99.90
18823;DHT22;9540;51.550;7.980;2023-06-22T04:10:22;17.60;99.90
18823;DHT22;9540;51.550;7.980;2023-06-22T04:12:53;17.70;99.90
18823;DHT22;9540;51.550;7.980;2023-06-22T04:15:20;17.70;99.90
18823;DHT22;9540;51.550;7.980;2023-06-22T04:17:47;17.70;99.90
18823;DHT22;9540;51.550;7.980;2023-06-22T04:20:14;17.80;99.90
18823;DHT22;9540;51.550;7.980;2023-06-22T04:22:41;17.80;99.90
18823;DHT22;9540;51.550;7.980;2023-06-22T04:27:48;17.80;99.90
18823;DHT22;9540;51.550;7.980;2023-06-22T04:30:18;17.90;99.90
18823;DHT22;9540;51.550;7.980;2023-06-22T04:32:45;17.90;99.90
18823;DHT22;9540;51.550;7.980;2023-06-22T04:35:23;18.00;99.90
18823;DHT22;9540;51.550;7.980;2023-06-22T04:37:51;18.10;99.90
18823;DHT22;9540;51.550;7.980;2023-06-22T04:40:21;18.10;99.90
18823;DHT22;9540;51.550;7.980;2023-06-22T04:42:48;18.20;99.90
18823;DHT22;9540;51.550;7.980;2023-06-22T04:45:20;18.30;99.90
18823;DHT22;9540;51.550;7.980;2023-06-22T04:47:48;18.40;99.90
18823;DHT22;9540;51.550;7.980;2023-06-22T04:50:15;18.50;99.90
18823;DHT22;9540;51.550;7.980;2023-06-22T04:52:43;18.50;99.90
18823;DHT22;9540;51.550;7.980;2023-06-22T04:55:11;18.60;99.90
18823;DHT22;9540;51.550;7.980;2023-06-22T04:57:38;18.60;99.90
18823;DHT22;9540;51.550;7.980;2023-06-22T05:00:06;18.60;99.90
18823;DHT22;9540;51.550;7.980;2023-06-22T05:02:44;18.60;99.90
18823;DHT22;9540;51.550;7.980;2023-06-22T05:05:12;18.60;99.90
18823;DHT22;9540;51.550;7.980;2023-06-22T05:07:42;18.60;99.90
18823;DHT22;9540;51.550;7.980;2023-06-22T05:10:11;18.50;99.90
18823;DHT22;9540;51.550;7.980;2023-06-22T05:12:38;18.50;99.90
18823;DHT22;9540;51.550;7.980;2023-06-22T05:15:07;18.50;99.90
18823;DHT22;9540;51.550;7.980;2023-06-22T05:17:37;18.50;99.90
18823;DHT22;9540;51.550;7.980;2023-06-22T05:20:10;18.40;99.90
18823;DHT22;9540;51.550;7.980;2023-06-22T05:22:38;18.40;99.90
18823;DHT22;9540;51.550;7.980;2023-06-22T05:25:07;18.60;99.90
18823;DHT22;9540;51.550;7.980;2023-06-22T05:27:38;18.50;99.90
18823;DHT22;9540;51.550;7.980;2023-06-22T05:30:06;18.40;99.90
18823;DHT22;9540;51.550;7.980;2023-06-22T05:32:34;18.30;99.90
18823;DHT22;9540;51.550;7.980;2023-06-22T05:35:02;18.20;99.90
18823;DHT22;9540;51.550;7.980;2023-06-22T05:37:31;18.10;99.90
18823;DHT22;9540;51.550;7.980;2023-06-22T05:39:58;17.90;99.90
18823;DHT22;9540;51.550;7.980;2023-06-22T05:42:25;17.80;99.90
18823;DHT22;9540;51.550;7.980;2023-06-22T05:44:53;17.60;99.90
18823;DHT22;9540;51.550;7.980;2023-06-22T05:47:20;17.60;99.90
18823;DHT22;9540;51.550;7.980;2023-06-22T05:49:48;17.50;99.90
18823;DHT22;9540;51.550;7.980;2023-06-22T05:52:15;17.40;99.90
18823;DHT22;9540;51.550;7.980;2023-06-22T05:54:44;17.40;99.90
18823;DHT22;9540;51.550;7.980;2023-06-22T05:57:11;17.40;99.90
18823;DHT22;9540;51.550;7.980;2023-06-22T05:59:41;17.40;99.90
18823;DHT22;9540;51.550;7.980;2023-06-22T06:02:09;17.40;99.90
18823;DHT22;9540;51.550;7.980;2023-06-22T06:04:37;17.50;99.90
18823;DHT22;9540;51.550;7.980;2023-06-22T06:07:08;17.50;99.90
18823;DHT22;9540;51.550;7.980;2023-06-22T06:09:35;17.60;99.90
18823;DHT22;9540;51.550;7.980;2023-06-22T06:12:04;17.60;99.90
18823;DHT22;9540;51.550;7.980;2023-06-22T06:14:31;17.70;99.90
18823;DHT22;9540;51.550;7.980;2023-06-22T06:16:58;17.70;99.90
18823;DHT22;9540;51.550;7.980;2023-06-22T06:19:25;17.70;99.90
18823;DHT22;9540;51.550;7.980;2023-06-22T06:21:52;17.70;99.90
18823;DHT22;9540;51.550;7.980;2023-06-22T06:24:20;17.60;99.90
18823;DHT22;9540;51.550;7.980;2023-06-22T06:26:54;17.60;99.90
18823;DHT22;9540;51.550;7.980;2023-06-22T06:29:22;17.60;99.90
18823;DHT22;9540;51.550;7.980;2023-06-22T06:31:50;17.60;99.90
18823;DHT22;9540;51.550;7.980;2023-06-22T06:34:17;17.60;99.90
18823;DHT22;9540;51.550;7.980;2023-06-22T06:36:44;17.60;99.90
18823;DHT22;9540;51.550;7.980;2023-06-22T06:39:11;17.70;99.90
18823;DHT22;9540;51.550;7.980;2023-06-22T06:41:38;17.70;99.90
18823;DHT22;9540;51.550;7.980;2023-06-22T06:44:05;17.80;99.90
18823;DHT22;9540;51.550;7.980;2023-06-22T06:46:34;17.90;99.90
18823;DHT22;9540;51.550;7.980;2023-06-22T06:49:01;17.90;99.90
18823;DHT22;9540;51.550;7.980;2023-06-22T06:51:29;17.90;99.90
18823;DHT22;9540;51.550;7.980;2023-06-22T06:53:57;18.00;99.90
18823;DHT22;9540;51.550;7.980;2023-06-22T06:56:24;18.00;99.90
18823;DHT22;9540;51.550;7.980;2023-06-22T06:58:51;18.10;99.90
18823;DHT22;9540;51.550;7.980;2023-06-22T07:01:18;18.10;99.90
18823;DHT22;9540;51.550;7.980;2023-06-22T07:03:50;18.10;99.90
18823;DHT22;9540;51.550;7.980;2023-06-22T07:06:17;18.20;99.90
18823;DHT22;9540;51.550;7.980;2023-06-22T07:08:44;18.30;99.90
18823;DHT22;9540;51.550;7.980;2023-06-22T07:11:11;18.30;99.90
18823;DHT22;9540;51.550;7.980;2023-06-22T07:13:41;18.40;99.90
18823;DHT22;9540;51.550;7.980;2023-06-22T07:16:08;18.40;99.90
18823;DHT22;9540;51.550;7.980;2023-06-22T07:18:35;18.50;99.90
18823;DHT22;9540;51.550;7.980;2023-06-22T07:21:04;18.50;99.90
18823;DHT22;9540;51.550;7.980;2023-06-22T07:23:32;18.60;99.90
18823;DHT22;9540;51.550;7.980;2023-06-22T07:25:59;18.70;99.90
18823;DHT22;9540;51.550;7.980;2023-06-22T07:28:28;18.80;99.90
18823;DHT22;9540;51.550;7.980;2023-06-22T07:30:56;18.90;99.90
18823;DHT22;9540;51.550;7.980;2023-06-22T07:33:23;19.00;99.90
18823;DHT22;9540;51.550;7.980;2023-06-22T07:35:51;19.10;99.90
18823;DHT22;9540;51.550;7.980;2023-06-22T07:38:22;19.10;99.90
18823;DHT22;9540;51.550;7.980;2023-06-22T07:40:49;19.10;99.90
18823;DHT22;9540;51.550;7.980;2023-06-22T07:43:19;19.00;99.90
18823;DHT22;9540;51.550;7.980;2023-06-22T07:45:48;19.00;99.90
18823;DHT22;9540;51.550;7.980;2023-06-22T07:50:45;19.20;99.90
18823;DHT22;9540;51.550;7.980;2023-06-22T07:53:12;19.30;99.90
18823;DHT22;9540;51.550;7.980;2023-06-22T07:55:41;19.40;99.90
18823;DHT22;9540;51.550;7.980;2023-06-22T07:58:08;19.40;99.90
18823;DHT22;9540;51.550;7.980;2023-06-22T08:00:35;19.50;99.90
18823;DHT22;9540;51.550;7.980;2023-06-22T08:03:02;19.60;99.90
18823;DHT22;9540;51.550;7.980;2023-06-22T08:05:31;19.70;99.90
18823;DHT22;9540;51.550;7.980;2023-06-22T08:07:58;19.80;99.90
18823;DHT22;9540;51.550;7.980;2023-06-22T08:10:25;19.90;99.90
18823;DHT22;9540;51.550;7.980;2023-06-22T08:12:54;20.00;99.90
18823;DHT22;9540;51.550;7.980;2023-06-22T08:15:21;20.10;99.90
18823;DHT22;9540;51.550;7.980;2023-06-22T08:17:48;20.20;99.90
18823;DHT22;9540;51.550;7.980;2023-06-22T08:20:17;20.20;99.90
18823;DHT22;9540;51.550;7.980;2023-06-22T08:22:44;20.30;99.90
18823;DHT22;9540;51.550;7.980;2023-06-22T08:25:12;20.40;99.90
18823;DHT22;9540;51.550;7.980;2023-06-22T08:27:45;20.50;99.90
18823;DHT22;9540;51.550;7.980;2023-06-22T08:30:16;20.60;99.90
18823;DHT22;9540;51.550;7.980;2023-06-22T08:32:44;20.70;99.90
18823;DHT22;9540;51.550;7.980;2023-06-22T08:35:11;20.80;99.90
18823;DHT22;9540;51.550;7.980;2023-06-22T08:37:38;21.00;99.90
18823;DHT22;9540;51.550;7.980;2023-06-22T08:40:07;21.20;99.90
18823;DHT22;9540;51.550;7.980;2023-06-22T08:42:35;21.40;99.90
18823;DHT22;9540;51.550;7.980;2023-06-22T08:45:02;21.50;99.90
18823;DHT22;9540;51.550;7.980;2023-06-22T08:47:31;21.50;99.90
18823;DHT22;9540;51.550;7.980;2023-06-22T08:49:58;21.50;99.90
18823;DHT22;9540;51.550;7.980;2023-06-22T08:52:27;21.60;99.90
18823;DHT22;9540;51.550;7.980;2023-06-22T08:54:54;21.80;99.90
18823;DHT22;9540;51.550;7.980;2023-06-22T08:57:22;21.90;99.90
18823;DHT22;9540;51.550;7.980;2023-06-22T08:59:49;22.00;99.90
18823;DHT22;9540;51.550;7.980;2023-06-22T09:02:17;22.10;99.90
18823;DHT22;9540;51.550;7.980;2023-06-22T09:04:47;22.20;99.90
18823;DHT22;9540;51.550;7.980;2023-06-22T09:07:14;22.10;99.90
18823;DHT22;9540;51.550;7.980;2023-06-22T09:09:47;22.00;99.90
18823;DHT22;9540;51.550;7.980;2023-06-22T09:12:18;22.00;99.90
18823;DHT22;9540;51.550;7.980;2023-06-22T09:14:45;22.00;99.90
18823;DHT22;9540;51.550;7.980;2023-06-22T09:17:13;21.90;99.90
18823;DHT22;9540;51.550;7.980;2023-06-22T09:19:41;21.90;99.90
18823;DHT22;9540;51.550;7.980;2023-06-22T09:22:19;22.00;99.90
18823;DHT22;9540;51.550;7.980;2023-06-22T09:24:47;22.10;99.90
18823;DHT22;9540;51.550;7.980;2023-06-22T09:27:15;22.30;99.90
18823;DHT22;9540;51.550;7.980;2023-06-22T09:29:42;22.50;99.90
18823;DHT22;9540;51.550;7.980;2023-06-22T09:32:09;22.70;99.90
18823;DHT22;9540;51.550;7.980;2023-06-22T09:34:36;22.60;99.90
18823;DHT22;9540;51.550;7.980;2023-06-22T09:37:03;22.70;99.90
18823;DHT22;9540;51.550;7.980;2023-06-22T09:39:38;22.90;99.90
18823;DHT22;9540;51.550;7.980;2023-06-22T09:42:08;22.90;99.90
18823;DHT22;9540;51.550;7.980;2023-06-22T09:44:35;22.90;99.90
18823;DHT22;9540;51.550;7.980;2023-06-22T09:47:03;23.00;99.90
18823;DHT22;9540;51.550;7.980;2023-06-22T09:49:30;23.10;99.90
18823;DHT22;9540;51.550;7.980;2023-06-22T09:51:58;23.20;99.90
18823;DHT22;9540;51.550;7.980;2023-06-22T09:54:25;23.20;99.90
18823;DHT22;9540;51.550;7.980;2023-06-22T09:56:54;23.20;99.90
18823;DHT22;9540;51.550;7.980;2023-06-22T09:59:21;23.20;99.90
18823;DHT22;9540;51.550;7.980;2023-06-22T10:01:48;23.20;99.90
18823;DHT22;9540;51.550;7.980;2023-06-22T10:04:15;23.30;99.90
18823;DHT22;9540;51.550;7.980;2023-06-22T10:06:42;23.40;99.90
18823;DHT22;9540;51.550;7.980;2023-06-22T10:09:09;23.50;99.90
18823;DHT22;9540;51.550;7.980;2023-06-22T10:11:36;23.50;99.90
18823;DHT22;9540;51.550;7.980;2023-06-22T10:14:05;23.50;99.90
18823;DHT22;9540;51.550;7.980;2023-06-22T10:16:33;23.60;99.90
18823;DHT22;9540;51.550;7.980;2023-06-22T10:19:05;23.50;99.90
18823;DHT22;9540;51.550;7.980;2023-06-22T10:21:37;23.50;99.90
18823;DHT22;9540;51.550;7.980;2023-06-22T10:24:04;23.50;99.90
18823;DHT22;9540;51.550;7.980;2023-06-22T10:26:32;23.50;99.90
18823;DHT22;9540;51.550;7.980;2023-06-22T10:29:00;23.50;99.90
18823;DHT22;9540;51.550;7.980;2023-06-22T10:31:29;23.40;99.90
18823;DHT22;9540;51.550;7.980;2023-06-22T10:34:00;23.40;99.90
18823;DHT22;9540;51.550;7.980;2023-06-22T10:36:28;23.40;99.90
18823;DHT22;9540;51.550;7.980;2023-06-22T10:38:55;23.50;99.90
18823;DHT22;9540;51.550;7.980;2023-06-22T10:41:25;23.50;99.90
18823;DHT22;9540;51.550;7.980;2023-06-22T10:43:54;23.50;99.90
18823;DHT22;9540;51.550;7.980;2023-06-22T10:46:21;23.60;99.90
18823;DHT22;9540;51.550;7.980;2023-06-22T10:48:50;23.60;99.90
18823;DHT22;9540;51.550;7.980;2023-06-22T10:51:20;23.70;99.90
18823;DHT22;9540;51.550;7.980;2023-06-22T10:53:47;23.80;99.90
18823;DHT22;9540;51.550;7.980;2023-06-22T10:56:14;23.90;99.90
18823;DHT22;9540;51.550;7.980;2023-06-22T10:58:41;24.00;99.90
18823;DHT22;9540;51.550;7.980;2023-06-22T11:01:09;24.00;99.90
18823;DHT22;9540;51.550;7.980;2023-06-22T11:03:37;23.90;99.90
18823;DHT22;9540;51.550;7.980;2023-06-22T11:06:05;24.00;99.90
18823;DHT22;9540;51.550;7.980;2023-06-22T11:08:32;24.10;99.90
18823;DHT22;9540;51.550;7.980;2023-06-22T11:10:59;24.10;99.90
18823;DHT22;9540;51.550;7.980;2023-06-22T11:13:26;24.20;99.90
18823;DHT22;9540;51.550;7.980;2023-06-22T11:15:53;24.20;99.90
18823;DHT22;9540;51.550;7.980;2023-06-22T11:18:21;24.20;99.90
18823;DHT22;9540;51.550;7.980;2023-06-22T11:20:48;24.10;99.90
18823;DHT22;9540;51.550;7.980;2023-06-22T11:23:17;24.10;99.90
18823;DHT22;9540;51.550;7.980;2023-06-22T11:25:44;24.00;99.90
18823;DHT22;9540;51.550;7.980;2023-06-22T11:28:12;24.00;99.90
18823;DHT22;9540;51.550;7.980;2023-06-22T11:30:39;24.00;99.90
18823;DHT22;9540;51.550;7.980;2023-06-22T11:33:06;24.00;99.90
18823;DHT22;9540;51.550;7.980;2023-06-22T11:35:33;24.00;99.90
18823;DHT22;9540;51.550;7.980;2023-06-22T11:38:03;23.90;99.90
18823;DHT22;9540;51.550;7.980;2023-06-22T11:40:32;23.90;99.90
18823;DHT22;9540;51.550;7.980;2023-06-22T11:42:59;23.90;99.90
18823;DHT22;9540;51.550;7.980;2023-06-22T11:45:27;23.90;99.90
18823;DHT22;9540;51.550;7.980;2023-06-22T11:47:56;23.80;99.90
18823;DHT22;9540;51.550;7.980;2023-06-22T11:50:24;23.70;99.90
18823;DHT22;9540;51.550;7.980;2023-06-22T11:52:51;23.70;99.90
18823;DHT22;9540;51.550;7.980;2023-06-22T11:55:18;23.60;99.90
18823;DHT22;9540;51.550;7.980;2023-06-22T11:57:55;23.50;99.90
18823;DHT22;9540;51.550;7.980;2023-06-22T12:00:22;23.40;99.90
18823;DHT22;9540;51.550;7.980;2023-06-22T12:02:50;23.20;99.90
18823;DHT22;9540;51.550;7.980;2023-06-22T12:05:18;23.00;99.90
18823;DHT22;9540;51.550;7.980;2023-06-22T12:07:46;22.70;99.90
18823;DHT22;9540;51.550;7.980;2023-06-22T12:10:13;22.50;99.90
18823;DHT22;9540;51.550;7.980;2023-06-22T12:12:40;22.30;99.90
18823;DHT22;9540;51.550;7.980;2023-06-22T12:15:09;22.10;99.90
18823;DHT22;9540;51.550;7.980;2023-06-22T12:17:37;22.00;99.90
18823;DHT22;9540;51.550;7.980;2023-06-22T12:20:05;21.80;99.90
18823;DHT22;9540;51.550;7.980;2023-06-22T12:22:33;21.70;99.90
18823;DHT22;9540;51.550;7.980;2023-06-22T12:25:00;21.60;99.90
18823;DHT22;9540;51.550;7.980;2023-06-22T12:27:27;21.50;99.90
18823;DHT22;9540;51.550;7.980;2023-06-22T12:29:56;21.40;99.90
18823;DHT22;9540;51.550;7.980;2023-06-22T12:32:24;21.30;99.90
18823;DHT22;9540;51.550;7.980;2023-06-22T12:34:52;21.20;99.90
18823;DHT22;9540;51.550;7.980;2023-06-22T12:37:19;21.20;99.90
18823;DHT22;9540;51.550;7.980;2023-06-22T12:39:46;21.10;99.90
18823;DHT22;9540;51.550;7.980;2023-06-22T12:42:14;21.00;99.90
18823;DHT22;9540;51.550;7.980;2023-06-22T12:44:41;20.90;99.90
18823;DHT22;9540;51.550;7.980;2023-06-22T12:47:11;20.90;99.90
18823;DHT22;9540;51.550;7.980;2023-06-22T12:49:40;20.80;99.90
18823;DHT22;9540;51.550;7.980;2023-06-22T12:52:09;20.70;99.90
18823;DHT22;9540;51.550;7.980;2023-06-22T12:54:37;20.70;99.90
18823;DHT22;9540;51.550;7.980;2023-06-22T12:57:04;20.60;99.90
18823;DHT22;9540;51.550;7.980;2023-06-22T12:59:31;20.60;99.90
18823;DHT22;9540;51.550;7.980;2023-06-22T13:01:59;20.50;99.90
18823;DHT22;9540;51.550;7.980;2023-06-22T13:04:26;20.40;99.90
18823;DHT22;9540;51.550;7.980;2023-06-22T13:06:54;20.40;99.90
18823;DHT22;9540;51.550;7.980;2023-06-22T13:09:21;20.40;99.90
18823;DHT22;9540;51.550;7.980;2023-06-22T13:11:48;20.30;99.90
18823;DHT22;9540;51.550;7.980;2023-06-22T13:14:16;20.10;99.90
18823;DHT22;9540;51.550;7.980;2023-06-22T13:16:43;19.90;99.90
18823;DHT22;9540;51.550;7.980;2023-06-22T13:19:10;19.60;99.90
18823;DHT22;9540;51.550;7.980;2023-06-22T13:21:37;19.40;99.90
18823;DHT22;9540;51.550;7.980;2023-06-22T13:24:06;19.20;99.90
18823;DHT22;9540;51.550;7.980;2023-06-22T13:26:34;19.20;99.90
18823;DHT22;9540;51.550;7.980;2023-06-22T13:29:01;19.20;99.90
18823;DHT22;9540;51.550;7.980;2023-06-22T13:31:28;19.30;99.90
18823;DHT22;9540;51.550;7.980;2023-06-22T13:33:55;19.30;99.90
18823;DHT22;9540;51.550;7.980;2023-06-22T13:36:22;19.40;99.90
18823;DHT22;9540;51.550;7.980;2023-06-22T13:38:50;19.50;99.90
18823;DHT22;9540;51.550;7.980;2023-06-22T13:41:18;19.60;99.90
18823;DHT22;9540;51.550;7.980;2023-06-22T13:43:45;19.60;99.90
18823;DHT22;9540;51.550;7.980;2023-06-22T13:46:12;19.70;99.90
18823;DHT22;9540;51.550;7.980;2023-06-22T13:48:40;19.70;99.90
18823;DHT22;9540;51.550;7.980;2023-06-22T13:51:07;19.70;99.90
18823;DHT22;9540;51.550;7.980;2023-06-22T13:53:34;19.70;99.90
18823;DHT22;9540;51.550;7.980;2023-06-22T13:56:02;19.60;99.90
18823;DHT22;9540;51.550;7.980;2023-06-22T13:58:30;19.40;99.90
18823;DHT22;9540;51.550;7.980;2023-06-22T14:00:57;19.40;99.90
18823;DHT22;9540;51.550;7.980;2023-06-22T14:03:24;19.40;99.90
18823;DHT22;9540;51.550;7.980;2023-06-22T14:05:51;19.50;99.90
18823;DHT22;9540;51.550;7.980;2023-06-22T14:08:22;19.70;99.90
18823;DHT22;9540;51.550;7.980;2023-06-22T14:10:50;20.00;99.90
18823;DHT22;9540;51.550;7.980;2023-06-22T14:13:19;20.30;99.90
18823;DHT22;9540;51.550;7.980;2023-06-22T14:15:48;20.60;99.90
18823;DHT22;9540;51.550;7.980;2023-06-22T14:18:17;20.90;99.90
18823;DHT22;9540;51.550;7.980;2023-06-22T14:20:44;21.10;99.90
18823;DHT22;9540;51.550;7.980;2023-06-22T14:23:13;21.30;99.90
18823;DHT22;9540;51.550;7.980;2023-06-22T14:25:40;21.50;99.90
18823;DHT22;9540;51.550;7.980;2023-06-22T14:28:07;21.60;99.90
18823;DHT22;9540;51.550;7.980;2023-06-22T14:30:34;21.70;99.90
18823;DHT22;9540;51.550;7.980;2023-06-22T14:33:03;21.80;99.90
18823;DHT22;9540;51.550;7.980;2023-06-22T14:35:30;21.80;99.90
18823;DHT22;9540;51.550;7.980;2023-06-22T14:37:58;21.80;99.90
18823;DHT22;9540;51.550;7.980;2023-06-22T14:40:25;21.80;99.90
18823;DHT22;9540;51.550;7.980;2023-06-22T14:42:53;21.80;99.90
18823;DHT22;9540;51.550;7.980;2023-06-22T14:45:22;21.80;99.90
18823;DHT22;9540;51.550;7.980;2023-06-22T14:47:49;21.90;99.90
18823;DHT22;9540;51.550;7.980;2023-06-22T14:50:18;21.90;99.90
18823;DHT22;9540;51.550;7.980;2023-06-22T14:52:45;22.10;99.90
18823;DHT22;9540;51.550;7.980;2023-06-22T14:55:12;22.00;99.90
18823;DHT22;9540;51.550;7.980;2023-06-22T14:57:40;22.00;99.90
18823;DHT22;9540;51.550;7.980;2023-06-22T15:00:09;21.90;99.90
18823;DHT22;9540;51.550;7.980;2023-06-22T15:02:36;22.00;99.90
18823;DHT22;9540;51.550;7.980;2023-06-22T15:05:05;22.10;99.90
18823;DHT22;9540;51.550;7.980;2023-06-22T15:07:33;22.20;99.90
18823;DHT22;9540;51.550;7.980;2023-06-22T15:10:01;22.10;99.90
18823;DHT22;9540;51.550;7.980;2023-06-22T15:12:28;22.00;99.90
18823;DHT22;9540;51.550;7.980;2023-06-22T15:14:55;22.00;99.90
18823;DHT22;9540;51.550;7.980;2023-06-22T15:17:22;21.90;99.90
18823;DHT22;9540;51.550;7.980;2023-06-22T15:19:49;21.70;99.90
18823;DHT22;9540;51.550;7.980;2023-06-22T15:22:17;21.70;99.90
18823;DHT22;9540;51.550;7.980;2023-06-22T15:24:46;21.60;99.90
18823;DHT22;9540;51.550;7.980;2023-06-22T15:27:14;21.50;99.90
18823;DHT22;9540;51.550;7.980;2023-06-22T15:29:42;21.40;99.90
18823;DHT22;9540;51.550;7.980;2023-06-22T15:32:09;21.30;99.90
18823;DHT22;9540;51.550;7.980;2023-06-22T15:34:36;21.20;99.90
18823;DHT22;9540;51.550;7.980;2023-06-22T15:37:03;21.10;99.90
18823;DHT22;9540;51.550;7.980;2023-06-22T15:39:31;21.00;99.90
18823;DHT22;9540;51.550;7.980;2023-06-22T15:41:59;21.00;99.90
18823;DHT22;9540;51.550;7.980;2023-06-22T15:44:26;20.90;99.90
18823;DHT22;9540;51.550;7.980;2023-06-22T15:46:54;20.90;99.90
18823;DHT22;9540;51.550;7.980;2023-06-22T15:49:21;20.80;99.90
18823;DHT22;9540;51.550;7.980;2023-06-22T15:51:48;20.70;99.90
18823;DHT22;9540;51.550;7.980;2023-06-22T15:54:15;20.60;99.90
18823;DHT22;9540;51.550;7.980;2023-06-22T15:56:42;20.60;99.90